sensor_id;sensor_type;location;lat;lon;timestamp;P1;durP1;ratioP1;P2;durP2;ratioP2
2019;SDS011;1014;51.960;8.542;2023-08-17T00:00:54;20.83;;;19.40;;
2019;SDS011;1014;51.960;8.542;2023-08-17T00:03:22;20.83;;;19.50;;
2019;SDS011;1014;51.960;8.542;2023-08-17T00:05:49;21.03;;;19.60;;
2019;SDS011;1014;51.960;8.542;2023-08-17T00:08:16;21.70;;;20.27;;
2019;SDS011;1014;51.960;8.542;2023-08-17T00:10:43;21.90;;;20.27;;
2019;SDS011;1014;51.960;8.542;2023-08-17T00:13:11;24.40;;;22.60;;
2019;SDS011;1014;51.960;8.542;2023-08-17T00:15:39;29.13;;;27.47;;
2019;SDS011;1014;51.960;8.542;2023-08-17T00:18:06;43.73;;;40.73;;
2019;SDS011;1014;51.960;8.542;2023-08-17T00:20:35;50.40;;;46.80;;
2019;SDS011;1014;51.960;8.542;2023-08-17T00:23:02;64.83;;;59.37;;
2019;SDS011;1014;51.960;8.542;2023-08-17T00:25:29;72.20;;;67.70;;
2019;SDS011;1014;51.960;8.542;2023-08-17T00:27:56;78.07;;;73.70;;
2019;SDS011;1014;51.960;8.542;2023-08-17T00:30:23;74.23;;;70.33;;
2019;SDS011;1014;51.960;8.542;2023-08-17T00:32:53;78.73;;;74.37;;
2019;SDS011;1014;51.960;8.542;2023-08-17T00:35:20;73.73;;;69.73;;
2019;SDS011;1014;51.960;8.542;2023-08-17T00:37:49;75.40;;;70.87;;
2019;SDS011;1014;51.960;8.542;2023-08-17T00:40:16;77.90;;;73.60;;
2019;SDS011;1014;51.960;8.542;2023-08-17T00:42:43;76.53;;;71.83;;
2019;SDS011;1014;51.960;8.542;2023-08-17T00:45:10;74.87;;;70.20;;
2019;SDS011;1014;51.960;8.542;2023-08-17T00:47:37;71.83;;;67.90;;
2019;SDS011;1014;51.960;8.542;2023-08-17T00:50:05;71.33;;;67.23;;
2019;SDS011;1014;51.960;8.542;2023-08-17T00:52:32;77.10;;;72.90;;
2019;SDS011;1014;51.960;8.542;2023-08-17T00:55:01;72.13;;;67.20;;
2019;SDS011;1014;51.960;8.542;2023-08-17T00:57:29;70.57;;;66.43;;
2019;SDS011;1014;51.960;8.542;2023-08-17T00:59:56;72.17;;;67.80;;
2019;SDS011;1014;51.960;8.542;2023-08-17T01:02:39;70.90;;;66.90;;
2019;SDS011;1014;51.960;8.542;2023-08-17T01:05:06;68.90;;;64.90;;
2019;SDS011;1014;51.960;8.542;2023-08-17T01:07:33;69.73;;;65.57;;
2019;SDS011;1014;51.960;8.542;2023-08-17T01:10:04;66.27;;;62.33;;
2019;SDS011;1014;51.960;8.542;2023-08-17T01:12:34;67.07;;;62.90;;
2019;SDS011;1014;51.960;8.542;2023-08-17T01:15:04;66.43;;;62.50;;
2019;SDS011;1014;51.960;8.542;2023-08-17T01:17:33;63.73;;;59.83;;
2019;SDS011;1014;51.960;8.542;2023-08-17T01:20:00;65.50;;;61.50;;
2019;SDS011;1014;51.960;8.542;2023-08-17T01:22:29;65.17;;;61.27;;
2019;SDS011;1014;51.960;8.542;2023-08-17T01:24:59;63.57;;;59.10;;
2019;SDS011;1014;51.960;8.542;2023-08-17T01:27:29;60.93;;;57.40;;
2019;SDS011;1014;51.960;8.542;2023-08-17T01:29:56;63.30;;;59.60;;
2019;SDS011;1014;51.960;8.542;2023-08-17T01:32:24;64.23;;;60.00;;
2019;SDS011;1014;51.960;8.542;2023-08-17T01:34:54;63.77;;;59.67;;
2019;SDS011;1014;51.960;8.542;2023-08-17T01:37:23;63.50;;;59.17;;
2019;SDS011;1014;51.960;8.542;2023-08-17T01:39:53;64.97;;;60.97;;
2019;SDS011;1014;51.960;8.542;2023-08-17T01:42:23;65.23;;;60.67;;
2019;SDS011;1014;51.960;8.542;2023-08-17T01:44:50;66.30;;;61.87;;
2019;SDS011;1014;51.960;8.542;2023-08-17T01:47:20;66.67;;;62.30;;
2019;SDS011;1014;51.960;8.542;2023-08-17T01:49:47;62.70;;;58.43;;
2019;SDS011;1014;51.960;8.542;2023-08-17T01:52:14;63.93;;;59.67;;
2019;SDS011;1014;51.960;8.542;2023-08-17T01:54:41;62.13;;;58.40;;
2019;SDS011;1014;51.960;8.542;2023-08-17T01:57:08;61.50;;;57.77;;
2019;SDS011;1014;51.960;8.542;2023-08-17T01:59:37;65.10;;;60.97;;
2019;SDS011;1014;51.960;8.542;2023-08-17T02:02:04;60.70;;;56.80;;
2019;SDS011;1014;51.960;8.542;2023-08-17T02:04:31;63.77;;;59.57;;
2019;SDS011;1014;51.960;8.542;2023-08-17T02:06:58;60.90;;;57.10;;
2019;SDS011;1014;51.960;8.542;2023-08-17T02:09:25;63.37;;;59.30;;
2019;SDS011;1014;51.960;8.542;2023-08-17T02:11:52;61.20;;;57.20;;
2019;SDS011;1014;51.960;8.542;2023-08-17T02:17:11;59.50;;;55.47;;
2019;SDS011;1014;51.960;8.542;2023-08-17T02:19:41;64.60;;;60.20;;
2019;SDS011;1014;51.960;8.542;2023-08-17T02:22:08;64.07;;;59.67;;
2019;SDS011;1014;51.960;8.542;2023-08-17T02:24:36;64.27;;;59.77;;
2019;SDS011;1014;51.960;8.542;2023-08-17T02:27:03;66.63;;;62.30;;
2019;SDS011;1014;51.960;8.542;2023-08-17T02:29:30;70.07;;;65.03;;
2019;SDS011;1014;51.960;8.542;2023-08-17T02:31:57;75.80;;;70.13;;
2019;SDS011;1014;51.960;8.542;2023-08-17T02:34:26;71.83;;;67.10;;
2019;SDS011;1014;51.960;8.542;2023-08-17T02:36:53;75.73;;;69.80;;
2019;SDS011;1014;51.960;8.542;2023-08-17T02:39:20;74.90;;;69.40;;
2019;SDS011;1014;51.960;8.542;2023-08-17T02:41:47;75.00;;;69.90;;
2019;SDS011;1014;51.960;8.542;2023-08-17T02:44:15;72.87;;;67.77;;
2019;SDS011;1014;51.960;8.542;2023-08-17T02:46:42;67.73;;;62.97;;
2019;SDS011;1014;51.960;8.542;2023-08-17T02:49:09;68.53;;;64.23;;
2019;SDS011;1014;51.960;8.542;2023-08-17T02:51:37;73.40;;;68.30;;
2019;SDS011;1014;51.960;8.542;2023-08-17T02:54:04;73.13;;;68.07;;
2019;SDS011;1014;51.960;8.542;2023-08-17T02:56:32;73.47;;;68.50;;
2019;SDS011;1014;51.960;8.542;2023-08-17T02:58:59;77.30;;;71.73;;
2019;SDS011;1014;51.960;8.542;2023-08-17T03:01:26;73.57;;;68.17;;
2019;SDS011;1014;51.960;8.542;2023-08-17T03:03:54;73.00;;;68.00;;
2019;SDS011;1014;51.960;8.542;2023-08-17T03:06:21;71.93;;;67.13;;
2019;SDS011;1014;51.960;8.542;2023-08-17T03:08:49;74.37;;;69.50;;
2019;SDS011;1014;51.960;8.542;2023-08-17T03:11:17;80.50;;;74.77;;
2019;SDS011;1014;51.960;8.542;2023-08-17T03:13:45;77.50;;;71.97;;
2019;SDS011;1014;51.960;8.542;2023-08-17T03:16:13;77.10;;;71.63;;
2019;SDS011;1014;51.960;8.542;2023-08-17T03:18:40;76.67;;;71.73;;
2019;SDS011;1014;51.960;8.542;2023-08-17T03:21:08;75.13;;;70.13;;
2019;SDS011;1014;51.960;8.542;2023-08-17T03:23:35;78.13;;;73.03;;
2019;SDS011;1014;51.960;8.542;2023-08-17T03:26:03;82.33;;;76.93;;
2019;SDS011;1014;51.960;8.542;2023-08-17T03:28:30;77.73;;;71.83;;
2019;SDS011;1014;51.960;8.542;2023-08-17T03:30:57;78.53;;;72.67;;
2019;SDS011;1014;51.960;8.542;2023-08-17T03:33:24;74.30;;;69.30;;
2019;SDS011;1014;51.960;8.542;2023-08-17T03:35:51;78.40;;;72.83;;
2019;SDS011;1014;51.960;8.542;2023-08-17T03:38:18;72.47;;;67.70;;
2019;SDS011;1014;51.960;8.542;2023-08-17T03:40:46;76.70;;;71.50;;
2019;SDS011;1014;51.960;8.542;2023-08-17T03:43:14;78.50;;;73.30;;
2019;SDS011;1014;51.960;8.542;2023-08-17T03:45:42;76.27;;;71.27;;
2019;SDS011;1014;51.960;8.542;2023-08-17T03:48:09;80.23;;;74.07;;
2019;SDS011;1014;51.960;8.542;2023-08-17T03:50:37;74.60;;;69.50;;
2019;SDS011;1014;51.960;8.542;2023-08-17T03:53:04;77.97;;;72.70;;
2019;SDS011;1014;51.960;8.542;2023-08-17T03:55:31;78.40;;;72.97;;
2019;SDS011;1014;51.960;8.542;2023-08-17T03:57:58;75.13;;;69.87;;
2019;SDS011;1014;51.960;8.542;2023-08-17T04:00:26;75.13;;;70.17;;
2019;SDS011;1014;51.960;8.542;2023-08-17T04:02:53;82.10;;;76.10;;
2019;SDS011;1014;51.960;8.542;2023-08-17T04:05:20;77.93;;;72.67;;
2019;SDS011;1014;51.960;8.542;2023-08-17T04:07:47;75.93;;;70.80;;
2019;SDS011;1014;51.960;8.542;2023-08-17T04:10:14;79.17;;;73.80;;
2019;SDS011;1014;51.960;8.542;2023-08-17T04:12:42;78.63;;;73.20;;
2019;SDS011;1014;51.960;8.542;2023-08-17T04:15:09;74.43;;;69.40;;
2019;SDS011;1014;51.960;8.542;2023-08-17T04:17:37;78.57;;;73.10;;
2019;SDS011;1014;51.960;8.542;2023-08-17T04:20:05;75.27;;;70.37;;
2019;SDS011;1014;51.960;8.542;2023-08-17T04:22:32;78.07;;;72.67;;
2019;SDS011;1014;51.960;8.542;2023-08-17T04:24:59;74.80;;;70.10;;
2019;SDS011;1014;51.960;8.542;2023-08-17T04:27:26;74.13;;;68.97;;
2019;SDS011;1014;51.960;8.542;2023-08-17T04:29:53;78.90;;;73.73;;
2019;SDS011;1014;51.960;8.542;2023-08-17T04:32:20;72.10;;;67.30;;
2019;SDS011;1014;51.960;8.542;2023-08-17T04:34:49;74.67;;;69.57;;
2019;SDS011;1014;51.960;8.542;2023-08-17T04:37:16;83.47;;;77.07;;
2019;SDS011;1014;51.960;8.542;2023-08-17T04:39:43;77.10;;;71.30;;
2019;SDS011;1014;51.960;8.542;2023-08-17T04:42:10;79.83;;;74.50;;
2019;SDS011;1014;51.960;8.542;2023-08-17T04:44:37;82.07;;;76.27;;
2019;SDS011;1014;51.960;8.542;2023-08-17T04:47:04;79.00;;;73.73;;
2019;SDS011;1014;51.960;8.542;2023-08-17T04:49:31;75.70;;;70.70;;
2019;SDS011;1014;51.960;8.542;2023-08-17T04:51:59;76.37;;;71.57;;
2019;SDS011;1014;51.960;8.542;2023-08-17T04:54:27;78.63;;;73.37;;
2019;SDS011;1014;51.960;8.542;2023-08-17T04:56:54;75.30;;;70.13;;
2019;SDS011;1014;51.960;8.542;2023-08-17T04:59:21;75.93;;;70.97;;
2019;SDS011;1014;51.960;8.542;2023-08-17T05:01:48;73.97;;;68.93;;
2019;SDS011;1014;51.960;8.542;2023-08-17T05:04:16;72.10;;;67.40;;
2019;SDS011;1014;51.960;8.542;2023-08-17T05:06:43;74.07;;;69.20;;
2019;SDS011;1014;51.960;8.542;2023-08-17T05:09:11;76.33;;;70.97;;
2019;SDS011;1014;51.960;8.542;2023-08-17T05:11:38;78.63;;;73.20;;
2019;SDS011;1014;51.960;8.542;2023-08-17T05:14:06;75.20;;;70.07;;
2019;SDS011;1014;51.960;8.542;2023-08-17T05:16:33;71.60;;;67.07;;
2019;SDS011;1014;51.960;8.542;2023-08-17T05:19:00;70.43;;;65.70;;
2019;SDS011;1014;51.960;8.542;2023-08-17T05:21:27;70.50;;;65.73;;
2019;SDS011;1014;51.960;8.542;2023-08-17T05:23:54;73.43;;;68.00;;
2019;SDS011;1014;51.960;8.542;2023-08-17T05:26:23;70.30;;;64.77;;
2019;SDS011;1014;51.960;8.542;2023-08-17T05:28:50;69.30;;;64.83;;
2019;SDS011;1014;51.960;8.542;2023-08-17T05:31:17;70.33;;;65.10;;
2019;SDS011;1014;51.960;8.542;2023-08-17T05:33:44;68.77;;;63.93;;
2019;SDS011;1014;51.960;8.542;2023-08-17T05:36:12;72.10;;;66.90;;
2019;SDS011;1014;51.960;8.542;2023-08-17T05:38:39;70.53;;;65.30;;
2019;SDS011;1014;51.960;8.542;2023-08-17T05:41:06;72.60;;;67.77;;
2019;SDS011;1014;51.960;8.542;2023-08-17T05:43:35;70.70;;;66.27;;
2019;SDS011;1014;51.960;8.542;2023-08-17T05:46:02;69.60;;;64.70;;
2019;SDS011;1014;51.960;8.542;2023-08-17T05:48:29;74.33;;;68.87;;
2019;SDS011;1014;51.960;8.542;2023-08-17T05:50:56;72.87;;;67.53;;
2019;SDS011;1014;51.960;8.542;2023-08-17T05:53:23;70.23;;;65.03;;
2019;SDS011;1014;51.960;8.542;2023-08-17T05:55:50;70.23;;;65.20;;
2019;SDS011;1014;51.960;8.542;2023-08-17T05:58:17;70.17;;;65.07;;
2019;SDS011;1014;51.960;8.542;2023-08-17T06:00:45;68.57;;;63.73;;
2019;SDS011;1014;51.960;8.542;2023-08-17T06:03:12;70.20;;;64.90;;
2019;SDS011;1014;51.960;8.542;2023-08-17T06:05:40;69.33;;;64.13;;
2019;SDS011;1014;51.960;8.542;2023-08-17T06:08:07;72.50;;;67.50;;
2019;SDS011;1014;51.960;8.542;2023-08-17T06:10:34;67.77;;;62.63;;
2019;SDS011;1014;51.960;8.542;2023-08-17T06:13:07;68.27;;;63.27;;
2019;SDS011;1014;51.960;8.542;2023-08-17T06:15:34;65.77;;;61.03;;
2019;SDS011;1014;51.960;8.542;2023-08-17T06:18:02;64.63;;;59.90;;
2019;SDS011;1014;51.960;8.542;2023-08-17T06:20:30;65.87;;;60.67;;
2019;SDS011;1014;51.960;8.542;2023-08-17T06:22:57;68.33;;;62.63;;
2019;SDS011;1014;51.960;8.542;2023-08-17T06:25:24;63.70;;;59.10;;
2019;SDS011;1014;51.960;8.542;2023-08-17T06:27:51;64.80;;;59.97;;
2019;SDS011;1014;51.960;8.542;2023-08-17T06:30:18;65.03;;;60.27;;
2019;SDS011;1014;51.960;8.542;2023-08-17T06:32:45;63.50;;;59.10;;
2019;SDS011;1014;51.960;8.542;2023-08-17T06:35:14;68.67;;;63.37;;
2019;SDS011;1014;51.960;8.542;2023-08-17T06:37:41;64.87;;;60.10;;
2019;SDS011;1014;51.960;8.542;2023-08-17T06:40:08;66.53;;;61.63;;
2019;SDS011;1014;51.960;8.542;2023-08-17T06:42:35;67.70;;;62.90;;
2019;SDS011;1014;51.960;8.542;2023-08-17T06:45:02;63.33;;;58.97;;
2019;SDS011;1014;51.960;8.542;2023-08-17T06:47:29;63.53;;;58.93;;
2019;SDS011;1014;51.960;8.542;2023-08-17T06:49:56;63.97;;;59.53;;
2019;SDS011;1014;51.960;8.542;2023-08-17T06:52:25;63.67;;;58.97;;
2019;SDS011;1014;51.960;8.542;2023-08-17T06:54:52;65.00;;;60.20;;
2019;SDS011;1014;51.960;8.542;2023-08-17T06:57:19;62.40;;;58.00;;
2019;SDS011;1014;51.960;8.542;2023-08-17T06:59:46;63.90;;;59.40;;
2019;SDS011;1014;51.960;8.542;2023-08-17T07:02:13;66.13;;;61.43;;
2019;SDS011;1014;51.960;8.542;2023-08-17T07:04:41;65.00;;;60.27;;
2019;SDS011;1014;51.960;8.542;2023-08-17T07:07:08;65.27;;;60.10;;
2019;SDS011;1014;51.960;8.542;2023-08-17T07:09:36;63.83;;;58.83;;
2019;SDS011;1014;51.960;8.542;2023-08-17T07:12:05;66.77;;;61.97;;
2019;SDS011;1014;51.960;8.542;2023-08-17T07:14:37;61.93;;;57.57;;
2019;SDS011;1014;51.960;8.542;2023-08-17T07:17:05;63.57;;;58.80;;
2019;SDS011;1014;51.960;8.542;2023-08-17T07:19:33;64.93;;;60.53;;
2019;SDS011;1014;51.960;8.542;2023-08-17T07:22:06;63.43;;;58.47;;
2019;SDS011;1014;51.960;8.542;2023-08-17T07:24:50;59.07;;;55.00;;
2019;SDS011;1014;51.960;8.542;2023-08-17T07:27:17;59.23;;;54.97;;
2019;SDS011;1014;51.960;8.542;2023-08-17T07:29:51;56.87;;;52.97;;
2019;SDS011;1014;51.960;8.542;2023-08-17T07:32:23;57.57;;;53.57;;
2019;SDS011;1014;51.960;8.542;2023-08-17T07:34:51;54.37;;;50.63;;
2019;SDS011;1014;51.960;8.542;2023-08-17T07:37:19;55.63;;;51.70;;
2019;SDS011;1014;51.960;8.542;2023-08-17T07:39:49;55.67;;;51.60;;
2019;SDS011;1014;51.960;8.542;2023-08-17T07:42:17;48.77;;;45.17;;
2019;SDS011;1014;51.960;8.542;2023-08-17T08:01:43;47.70;;;44.50;;
2019;SDS011;1014;51.960;8.542;2023-08-17T08:04:10;47.93;;;44.37;;
2019;SDS011;1014;51.960;8.542;2023-08-17T08:06:38;46.37;;;42.93;;
2019;SDS011;1014;51.960;8.542;2023-08-17T08:09:05;46.00;;;42.57;;
2019;SDS011;1014;51.960;8.542;2023-08-17T08:11:32;45.47;;;42.07;;
2019;SDS011;1014;51.960;8.542;2023-08-17T08:13:59;43.50;;;40.43;;
2019;SDS011;1014;51.960;8.542;2023-08-17T08:16:26;44.57;;;41.27;;
2019;SDS011;1014;51.960;8.542;2023-08-17T08:18:56;44.20;;;40.93;;
2019;SDS011;1014;51.960;8.542;2023-08-17T08:21:24;45.00;;;41.70;;
2019;SDS011;1014;51.960;8.542;2023-08-17T08:23:52;45.20;;;41.87;;
2019;SDS011;1014;51.960;8.542;2023-08-17T08:26:19;44.80;;;41.33;;
2019;SDS011;1014;51.960;8.542;2023-08-17T08:28:46;44.27;;;40.97;;
2019;SDS011;1014;51.960;8.542;2023-08-17T08:31:13;45.57;;;42.30;;
2019;SDS011;1014;51.960;8.542;2023-08-17T08:33:40;43.10;;;40.07;;
2019;SDS011;1014;51.960;8.542;2023-08-17T08:36:09;44.87;;;41.00;;
2019;SDS011;1014;51.960;8.542;2023-08-17T08:38:36;45.20;;;41.77;;
2019;SDS011;1014;51.960;8.542;2023-08-17T08:41:03;42.77;;;39.50;;
2019;SDS011;1014;51.960;8.542;2023-08-17T08:43:30;43.57;;;40.27;;
2019;SDS011;1014;51.960;8.542;2023-08-17T08:45:57;43.80;;;40.60;;
2019;SDS011;1014;51.960;8.542;2023-08-17T08:48:25;42.00;;;38.83;;
2019;SDS011;1014;51.960;8.542;2023-08-17T08:50:54;43.47;;;39.60;;
2019;SDS011;1014;51.960;8.542;2023-08-17T08:53:24;42.83;;;39.53;;
2019;SDS011;1014;51.960;8.542;2023-08-17T08:55:53;43.67;;;39.83;;
2019;SDS011;1014;51.960;8.542;2023-08-17T08:58:21;43.07;;;39.97;;
2019;SDS011;1014;51.960;8.542;2023-08-17T09:00:49;41.60;;;38.60;;
2019;SDS011;1014;51.960;8.542;2023-08-17T09:03:16;39.83;;;36.80;;
2019;SDS011;1014;51.960;8.542;2023-08-17T09:05:45;39.40;;;36.40;;
2019;SDS011;1014;51.960;8.542;2023-08-17T09:08:14;39.10;;;36.13;;
2019;SDS011;1014;51.960;8.542;2023-08-17T09:10:42;40.10;;;36.87;;
2019;SDS011;1014;51.960;8.542;2023-08-17T09:13:10;39.83;;;36.83;;
2019;SDS011;1014;51.960;8.542;2023-08-17T09:15:37;38.37;;;35.33;;
2019;SDS011;1014;51.960;8.542;2023-08-17T09:18:04;40.70;;;37.60;;
2019;SDS011;1014;51.960;8.542;2023-08-17T09:20:36;39.63;;;36.93;;
2019;SDS011;1014;51.960;8.542;2023-08-17T09:23:04;40.43;;;37.73;;
2019;SDS011;1014;51.960;8.542;2023-08-17T09:25:31;40.87;;;37.83;;
2019;SDS011;1014;51.960;8.542;2023-08-17T09:28:01;42.00;;;38.67;;
2019;SDS011;1014;51.960;8.542;2023-08-17T09:30:34;41.87;;;38.97;;
2019;SDS011;1014;51.960;8.542;2023-08-17T09:33:01;41.97;;;38.87;;
2019;SDS011;1014;51.960;8.542;2023-08-17T09:35:31;38.97;;;36.10;;
2019;SDS011;1014;51.960;8.542;2023-08-17T09:37:58;38.53;;;35.77;;
2019;SDS011;1014;51.960;8.542;2023-08-17T09:40:25;39.10;;;36.37;;
2019;SDS011;1014;51.960;8.542;2023-08-17T09:42:53;38.33;;;35.77;;
2019;SDS011;1014;51.960;8.542;2023-08-17T09:45:21;36.23;;;33.97;;
2019;SDS011;1014;51.960;8.542;2023-08-17T09:47:48;36.77;;;34.10;;
2019;SDS011;1014;51.960;8.542;2023-08-17T09:50:15;35.67;;;33.07;;
2019;SDS011;1014;51.960;8.542;2023-08-17T09:52:42;35.30;;;32.70;;
2019;SDS011;1014;51.960;8.542;2023-08-17T09:55:09;34.10;;;31.80;;
2019;SDS011;1014;51.960;8.542;2023-08-17T09:57:38;35.70;;;33.37;;
2019;SDS011;1014;51.960;8.542;2023-08-17T10:00:05;35.57;;;33.27;;
2019;SDS011;1014;51.960;8.542;2023-08-17T10:02:35;33.80;;;31.40;;
2019;SDS011;1014;51.960;8.542;2023-08-17T10:05:02;31.57;;;29.57;;
2019;SDS011;1014;51.960;8.542;2023-08-17T10:07:30;33.50;;;31.10;;
2019;SDS011;1014;51.960;8.542;2023-08-17T10:10:00;31.70;;;29.60;;
2019;SDS011;1014;51.960;8.542;2023-08-17T10:12:30;30.93;;;28.83;;
2019;SDS011;1014;51.960;8.542;2023-08-17T10:15:02;31.07;;;28.93;;
2019;SDS011;1014;51.960;8.542;2023-08-17T10:17:31;31.90;;;29.80;;
2019;SDS011;1014;51.960;8.542;2023-08-17T10:20:02;32.17;;;29.97;;
2019;SDS011;1014;51.960;8.542;2023-08-17T10:22:31;33.33;;;30.83;;
2019;SDS011;1014;51.960;8.542;2023-08-17T10:25:01;31.97;;;29.67;;
2019;SDS011;1014;51.960;8.542;2023-08-17T10:27:28;34.63;;;32.33;;
2019;SDS011;1014;51.960;8.542;2023-08-17T10:29:56;31.73;;;29.67;;
2019;SDS011;1014;51.960;8.542;2023-08-17T10:32:23;33.23;;;30.20;;
2019;SDS011;1014;51.960;8.542;2023-08-17T10:34:50;32.13;;;30.03;;
2019;SDS011;1014;51.960;8.542;2023-08-17T10:37:19;32.00;;;29.80;;
2019;SDS011;1014;51.960;8.542;2023-08-17T10:39:49;31.53;;;29.33;;
2019;SDS011;1014;51.960;8.542;2023-08-17T10:42:29;31.70;;;29.50;;
2019;SDS011;1014;51.960;8.542;2023-08-17T10:44:57;32.60;;;30.40;;
2019;SDS011;1014;51.960;8.542;2023-08-17T10:47:26;30.57;;;28.33;;
2019;SDS011;1014;51.960;8.542;2023-08-17T10:49:55;33.87;;;31.57;;
2019;SDS011;1014;51.960;8.542;2023-08-17T10:52:27;32.57;;;30.27;;
2019;SDS011;1014;51.960;8.542;2023-08-17T10:54:55;31.97;;;29.70;;
2019;SDS011;1014;51.960;8.542;2023-08-17T10:57:27;32.70;;;30.47;;
2019;SDS011;1014;51.960;8.542;2023-08-17T11:00:05;29.93;;;28.00;;
2019;SDS011;1014;51.960;8.542;2023-08-17T11:02:33;29.30;;;27.43;;
2019;SDS011;1014;51.960;8.542;2023-08-17T11:05:00;28.83;;;27.10;;
2019;SDS011;1014;51.960;8.542;2023-08-17T11:07:29;29.10;;;27.20;;
2019;SDS011;1014;51.960;8.542;2023-08-17T11:10:10;29.00;;;26.93;;
2019;SDS011;1014;51.960;8.542;2023-08-17T11:12:37;27.80;;;26.10;;
2019;SDS011;1014;51.960;8.542;2023-08-17T11:15:04;29.37;;;27.47;;
2019;SDS011;1014;51.960;8.542;2023-08-17T11:17:32;27.67;;;25.97;;
2019;SDS011;1014;51.960;8.542;2023-08-17T11:19:59;29.70;;;27.70;;
2019;SDS011;1014;51.960;8.542;2023-08-17T11:22:27;27.60;;;26.00;;
2019;SDS011;1014;51.960;8.542;2023-08-17T11:24:55;27.93;;;26.17;;
2019;SDS011;1014;51.960;8.542;2023-08-17T11:27:23;28.00;;;26.30;;
2019;SDS011;1014;51.960;8.542;2023-08-17T11:29:52;27.33;;;25.50;;
2019;SDS011;1014;51.960;8.542;2023-08-17T11:32:19;25.43;;;23.90;;
2019;SDS011;1014;51.960;8.542;2023-08-17T11:34:47;25.50;;;23.70;;
2019;SDS011;1014;51.960;8.542;2023-08-17T11:37:15;25.07;;;23.70;;
2019;SDS011;1014;51.960;8.542;2023-08-17T11:39:42;25.00;;;23.47;;
2019;SDS011;1014;51.960;8.542;2023-08-17T11:42:11;24.10;;;22.70;;
2019;SDS011;1014;51.960;8.542;2023-08-17T11:44:38;24.60;;;23.30;;
2019;SDS011;1014;51.960;8.542;2023-08-17T11:47:05;25.00;;;23.40;;
2019;SDS011;1014;51.960;8.542;2023-08-17T11:49:32;24.83;;;23.23;;
2019;SDS011;1014;51.960;8.542;2023-08-17T11:51:59;24.03;;;22.63;;
2019;SDS011;1014;51.960;8.542;2023-08-17T11:54:26;24.47;;;23.03;;
2019;SDS011;1014;51.960;8.542;2023-08-17T11:56:53;24.53;;;23.13;;
2019;SDS011;1014;51.960;8.542;2023-08-17T11:59:21;25.93;;;24.30;;
2019;SDS011;1014;51.960;8.542;2023-08-17T12:01:48;26.67;;;24.90;;
2019;SDS011;1014;51.960;8.542;2023-08-17T12:04:16;27.50;;;25.60;;
2019;SDS011;1014;51.960;8.542;2023-08-17T12:06:43;26.47;;;24.83;;
2019;SDS011;1014;51.960;8.542;2023-08-17T12:09:11;26.03;;;24.53;;
2019;SDS011;1014;51.960;8.542;2023-08-17T12:11:39;26.47;;;24.80;;
2019;SDS011;1014;51.960;8.542;2023-08-17T12:14:12;26.17;;;24.47;;
2019;SDS011;1014;51.960;8.542;2023-08-17T12:16:47;25.10;;;23.60;;
2019;SDS011;1014;51.960;8.542;2023-08-17T12:19:14;25.40;;;23.80;;
2019;SDS011;1014;51.960;8.542;2023-08-17T12:21:41;26.40;;;24.87;;
2019;SDS011;1014;51.960;8.542;2023-08-17T12:24:09;24.27;;;22.70;;
2019;SDS011;1014;51.960;8.542;2023-08-17T12:26:40;25.87;;;24.27;;
2019;SDS011;1014;51.960;8.542;2023-08-17T12:29:07;25.37;;;23.67;;
2019;SDS011;1014;51.960;8.542;2023-08-17T12:31:35;25.93;;;24.17;;
2019;SDS011;1014;51.960;8.542;2023-08-17T12:34:04;26.73;;;25.23;;
2019;SDS011;1014;51.960;8.542;2023-08-17T12:36:31;26.87;;;25.07;;
2019;SDS011;1014;51.960;8.542;2023-08-17T12:39:00;26.67;;;25.07;;
2019;SDS011;1014;51.960;8.542;2023-08-17T12:41:28;27.30;;;25.60;;
2019;SDS011;1014;51.960;8.542;2023-08-17T12:43:56;27.43;;;25.87;;
2019;SDS011;1014;51.960;8.542;2023-08-17T12:46:24;26.53;;;24.83;;
2019;SDS011;1014;51.960;8.542;2023-08-17T12:48:51;26.67;;;25.07;;
2019;SDS011;1014;51.960;8.542;2023-08-17T12:51:19;27.03;;;25.33;;
2019;SDS011;1014;51.960;8.542;2023-08-17T12:53:46;27.50;;;25.70;;
2019;SDS011;1014;51.960;8.542;2023-08-17T12:56:13;27.30;;;25.70;;
2019;SDS011;1014;51.960;8.542;2023-08-17T12:58:40;27.80;;;26.10;;
2019;SDS011;1014;51.960;8.542;2023-08-17T13:01:07;29.27;;;27.37;;
2019;SDS011;1014;51.960;8.542;2023-08-17T13:03:35;27.10;;;25.50;;
2019;SDS011;1014;51.960;8.542;2023-08-17T13:06:02;28.13;;;26.07;;
2019;SDS011;1014;51.960;8.542;2023-08-17T13:08:30;27.80;;;25.90;;
2019;SDS011;1014;51.960;8.542;2023-08-17T13:10:57;27.33;;;25.63;;
2019;SDS011;1014;51.960;8.542;2023-08-17T13:13:24;27.13;;;25.23;;
2019;SDS011;1014;51.960;8.542;2023-08-17T13:15:51;26.10;;;24.60;;
2019;SDS011;1014;51.960;8.542;2023-08-17T13:18:18;24.20;;;22.80;;
2019;SDS011;1014;51.960;8.542;2023-08-17T13:20:45;27.47;;;25.67;;
2019;SDS011;1014;51.960;8.542;2023-08-17T13:23:12;25.30;;;23.67;;
2019;SDS011;1014;51.960;8.542;2023-08-17T13:25:41;25.53;;;23.80;;
2019;SDS011;1014;51.960;8.542;2023-08-17T13:28:08;26.60;;;25.00;;
2019;SDS011;1014;51.960;8.542;2023-08-17T13:30:38;24.63;;;23.13;;
2019;SDS011;1014;51.960;8.542;2023-08-17T13:33:05;24.60;;;23.10;;
2019;SDS011;1014;51.960;8.542;2023-08-17T13:35:32;26.17;;;24.50;;
2019;SDS011;1014;51.960;8.542;2023-08-17T13:38:00;25.33;;;23.67;;
2019;SDS011;1014;51.960;8.542;2023-08-17T13:40:29;26.67;;;24.87;;
2019;SDS011;1014;51.960;8.542;2023-08-17T13:42:57;26.80;;;24.67;;
2019;SDS011;1014;51.960;8.542;2023-08-17T13:45:25;26.03;;;24.40;;
2019;SDS011;1014;51.960;8.542;2023-08-17T13:47:52;24.73;;;23.33;;
2019;SDS011;1014;51.960;8.542;2023-08-17T13:50:19;25.30;;;23.73;;
2019;SDS011;1014;51.960;8.542;2023-08-17T13:52:46;26.20;;;24.40;;
2019;SDS011;1014;51.960;8.542;2023-08-17T13:55:14;26.90;;;25.20;;
2019;SDS011;1014;51.960;8.542;2023-08-17T13:57:41;26.93;;;25.23;;
2019;SDS011;1014;51.960;8.542;2023-08-17T14:00:10;27.00;;;25.00;;
2019;SDS011;1014;51.960;8.542;2023-08-17T14:02:37;26.77;;;24.93;;
2019;SDS011;1014;51.960;8.542;2023-08-17T14:05:05;28.70;;;26.77;;
2019;SDS011;1014;51.960;8.542;2023-08-17T14:07:32;27.87;;;26.17;;
2019;SDS011;1014;51.960;8.542;2023-08-17T14:09:59;28.63;;;26.40;;
2019;SDS011;1014;51.960;8.542;2023-08-17T14:12:27;27.73;;;25.90;;
2019;SDS011;1014;51.960;8.542;2023-08-17T14:14:54;27.40;;;25.47;;
2019;SDS011;1014;51.960;8.542;2023-08-17T14:17:23;28.20;;;26.17;;
2019;SDS011;1014;51.960;8.542;2023-08-17T14:19:50;28.30;;;26.37;;
2019;SDS011;1014;51.960;8.542;2023-08-17T14:22:17;26.43;;;24.73;;
2019;SDS011;1014;51.960;8.542;2023-08-17T14:24:44;27.70;;;25.70;;
2019;SDS011;1014;51.960;8.542;2023-08-17T14:27:11;26.07;;;24.13;;
2019;SDS011;1014;51.960;8.542;2023-08-17T14:29:38;26.67;;;24.87;;
2019;SDS011;1014;51.960;8.542;2023-08-17T14:32:05;26.20;;;24.40;;
2019;SDS011;1014;51.960;8.542;2023-08-17T14:34:33;27.23;;;25.33;;
2019;SDS011;1014;51.960;8.542;2023-08-17T14:37:00;26.07;;;24.17;;
2019;SDS011;1014;51.960;8.542;2023-08-17T14:39:27;26.33;;;24.53;;
2019;SDS011;1014;51.960;8.542;2023-08-17T14:41:54;25.97;;;24.27;;
2019;SDS011;1014;51.960;8.542;2023-08-17T14:44:22;26.37;;;24.67;;
2019;SDS011;1014;51.960;8.542;2023-08-17T14:46:49;27.10;;;25.10;;
2019;SDS011;1014;51.960;8.542;2023-08-17T14:49:16;27.47;;;25.50;;
2019;SDS011;1014;51.960;8.542;2023-08-17T14:51:44;26.30;;;24.30;;
2019;SDS011;1014;51.960;8.542;2023-08-17T14:54:24;26.03;;;24.20;;
2019;SDS011;1014;51.960;8.542;2023-08-17T14:56:51;25.17;;;23.53;;
2019;SDS011;1014;51.960;8.542;2023-08-17T14:59:18;25.80;;;24.20;;
2019;SDS011;1014;51.960;8.542;2023-08-17T15:01:45;26.27;;;24.40;;
2019;SDS011;1014;51.960;8.542;2023-08-17T15:04:14;26.00;;;24.20;;
2019;SDS011;1014;51.960;8.542;2023-08-17T15:06:41;27.90;;;25.87;;
2019;SDS011;1014;51.960;8.542;2023-08-17T15:09:10;25.63;;;23.90;;
2019;SDS011;1014;51.960;8.542;2023-08-17T15:11:37;25.73;;;23.93;;